createdAt,value
2022-08-05T00:00:17.876Z,1.23
2022-08-05T00:00:35.147Z,2.70
2022-08-05T00:01:20.945Z,3.05
2022-08-05T00:01:48.805Z,1.70
2022-08-05T00:02:07.616Z,2.47
2022-08-05T00:02:24.751Z,3.00
2022-08-05T00:02:43.934Z,4.10
2022-08-05T00:03:08.593Z,2.97
2022-08-05T00:03:32.143Z,2.38
2022-08-05T00:03:49.256Z,1.13
2022-08-05T00:04:08.369Z,2.38
2022-08-05T00:04:25.093Z,2.85
2022-08-05T00:04:41.666Z,1.75
2022-08-05T00:04:58.400Z,3.50
2022-08-05T00:06:03.119Z,3.75
2022-08-05T00:06:06.585Z,3.45
2022-08-05T00:06:33.398Z,1.95
2022-08-05T00:06:52.373Z,3.72
2022-08-05T00:07:27.151Z,4.10
2022-08-05T00:08:00.319Z,3.10
2022-08-05T00:08:34.900Z,4.63
2022-08-05T00:08:52.945Z,2.85
2022-08-05T00:09:13.057Z,2.30
2022-08-05T00:09:33.369Z,6.70
2022-08-05T00:09:49.924Z,3.03
2022-08-05T00:10:07.009Z,3.42
2022-08-05T00:10:27.070Z,2.97
2022-08-05T00:10:43.858Z,3.40
2022-08-05T00:11:01.391Z,3.55
2022-08-05T00:11:23.733Z,3.88
2022-08-05T00:11:48.419Z,5.20
2022-08-05T00:12:06.542Z,4.25
2022-08-05T00:12:30.758Z,4.47
2022-08-05T00:12:55.726Z,4.05
2022-08-05T00:13:18.739Z,2.10
2022-08-05T00:13:39.300Z,3.20
2022-08-05T00:13:56.483Z,3.05
2022-08-05T00:14:17.133Z,5.70
2022-08-05T00:14:34.000Z,5.90
2022-08-05T00:14:51.846Z,2.90
2022-08-05T00:15:54.166Z,3.38
2022-08-05T00:15:55.879Z,3.05
2022-08-05T00:16:16.179Z,2.55
2022-08-05T00:16:35.673Z,2.70
2022-08-05T00:16:54.408Z,3.80
2022-08-05T00:17:19.348Z,3.45
2022-08-05T00:17:38.155Z,2.83
2022-08-05T00:17:58.267Z,2.97
2022-08-05T00:18:22.653Z,3.65
2022-08-05T00:18:40.455Z,4.20
2022-08-05T00:18:59.142Z,2.20
2022-08-05T00:19:16.982Z,2.58
2022-08-05T00:19:45.582Z,3.30
2022-08-05T00:20:03.262Z,5.82
2022-08-05T00:20:21.280Z,5.28
2022-08-05T00:20:38.901Z,3.60
2022-08-05T00:20:58.724Z,3.78
2022-08-05T00:21:15.990Z,2.65
2022-08-05T00:21:35.851Z,2.30
2022-08-05T00:21:54.071Z,3.28
2022-08-05T00:22:11.728Z,4.05
2022-08-05T00:22:28.628Z,3.45
2022-08-05T00:22:59.603Z,3.45
2022-08-05T00:23:44.838Z,4.28
2022-08-05T00:24:10.778Z,3.42
2022-08-05T00:24:31.162Z,3.17
2022-08-05T00:24:48.034Z,2.28
2022-08-05T00:25:12.935Z,3.38
2022-08-05T00:25:45.689Z,4.03
2022-08-05T00:26:03.235Z,5.35
2022-08-05T00:26:20.178Z,4.00
2022-08-05T00:26:36.793Z,3.28
2022-08-05T00:26:54.664Z,3.38
2022-08-05T00:27:16.510Z,3.03
2022-08-05T00:27:36.125Z,3.67
2022-08-05T00:27:53.275Z,3.58
2022-08-05T00:28:12.627Z,4.07
2022-08-05T00:28:30.279Z,4.90
2022-08-05T00:28:49.791Z,3.47
2022-08-05T00:29:06.409Z,3.55
2022-08-05T00:29:25.685Z,4.45
2022-08-05T00:29:43.660Z,6.60
2022-08-05T00:30:00.418Z,4.97
2022-08-05T00:30:19.781Z,6.85
2022-08-05T00:30:52.137Z,7.32
2022-08-05T00:31:10.876Z,4.63
2022-08-05T00:31:54.265Z,4.55
2022-08-05T00:32:12.180Z,5.00
2022-08-05T00:32:30.131Z,7.80
2022-08-05T00:32:46.820Z,5.72
2022-08-05T00:33:03.698Z,5.65
2022-08-05T00:34:53.350Z,6.03
2022-08-05T00:34:54.545Z,5.32
2022-08-05T00:34:55.195Z,6.70
2022-08-05T00:35:12.036Z,4.63
2022-08-05T00:35:33.155Z,4.00
2022-08-05T00:36:16.516Z,6.45
2022-08-05T00:37:10.308Z,5.28
2022-08-05T00:37:20.097Z,4.38
2022-08-05T00:37:50.496Z,9.70
2022-08-05T00:38:06.690Z,8.05
2022-08-05T00:38:28.661Z,6.55
2022-08-05T00:38:46.499Z,8.70
2022-08-05T00:39:03.404Z,6.85
2022-08-05T00:39:20.079Z,5.68
2022-08-05T00:39:36.976Z,7.30
2022-08-05T00:39:59.435Z,4.63
2022-08-05T00:40:17.937Z,4.32
2022-08-05T00:40:51.967Z,4.43
2022-08-05T00:41:11.785Z,5.55
2022-08-05T00:41:29.026Z,3.95
2022-08-05T00:42:05.727Z,3.65
2022-08-05T00:42:32.994Z,4.28
2022-08-05T00:42:49.593Z,6.40
2022-08-05T00:43:07.554Z,6.95
2022-08-05T00:43:24.759Z,5.47
2022-08-05T00:44:02.707Z,3.67
2022-08-05T00:44:19.285Z,3.95
2022-08-05T00:44:37.583Z,6.63
2022-08-05T00:44:54.184Z,6.63
2022-08-05T00:45:11.805Z,4.97
2022-08-05T00:45:42.829Z,5.78
2022-08-05T00:46:00.557Z,5.53
2022-08-05T00:46:17.125Z,6.03
2022-08-05T00:47:02.973Z,4.45
2022-08-05T00:47:21.906Z,6.65
2022-08-05T00:47:56.601Z,5.25
2022-08-05T00:48:15.665Z,5.80
2022-08-05T00:48:32.214Z,7.00
2022-08-05T00:48:51.689Z,5.95
2022-08-05T00:49:08.409Z,5.93
2022-08-05T00:49:32.617Z,5.60
2022-08-05T00:49:51.415Z,5.68
2022-08-05T00:50:10.363Z,6.60
2022-08-05T00:50:28.449Z,5.20
2022-08-05T00:50:47.497Z,6.07
2022-08-05T00:51:08.977Z,6.65
2022-08-05T00:51:51.975Z,5.88
2022-08-05T00:52:09.977Z,7.97
2022-08-05T00:52:29.015Z,6.53
2022-08-05T00:52:47.678Z,5.45
2022-08-05T00:53:09.841Z,5.82
2022-08-05T00:54:00.302Z,5.38
2022-08-05T00:54:19.585Z,7.28
2022-08-05T00:54:36.308Z,6.13
2022-08-05T00:54:53.184Z,6.25
2022-08-05T00:55:12.612Z,7.43
2022-08-05T00:55:42.325Z,7.07
2022-08-05T00:56:00.264Z,6.03
2022-08-05T00:56:22.616Z,5.68
2022-08-05T00:56:40.623Z,4.72
2022-08-05T00:57:08.591Z,5.55
2022-08-05T00:57:31.750Z,6.43
2022-08-05T00:57:58.751Z,6.10
2022-08-05T00:58:17.776Z,5.38
2022-08-05T00:58:36.159Z,4.32
2022-08-05T00:58:53.948Z,5.03
2022-08-05T00:59:10.465Z,6.97
2022-08-05T00:59:27.046Z,6.85
2022-08-05T00:59:52.336Z,6.15
2022-08-05T01:00:11.133Z,10.73
2022-08-05T01:00:30.411Z,9.88
2022-08-05T01:00:50.382Z,6.65
2022-08-05T01:01:09.093Z,8.15
2022-08-05T01:01:42.953Z,7.00
2022-08-05T01:02:04.019Z,6.10
2022-08-05T01:02:20.701Z,6.85
2022-08-05T01:02:41.421Z,7.53
2022-08-05T01:03:00.641Z,7.40
2022-08-05T01:03:23.247Z,6.97
2022-08-05T01:03:40.102Z,9.50
2022-08-05T01:03:58.968Z,8.40
2022-08-05T01:04:20.267Z,8.65
2022-08-05T01:04:44.507Z,5.38
2022-08-05T01:05:10.018Z,6.90
2022-08-05T01:05:27.504Z,7.30
2022-08-05T01:05:44.201Z,7.88
2022-08-05T01:06:05.615Z,7.97
2022-08-05T01:06:32.451Z,7.15
2022-08-05T01:06:51.718Z,7.25
2022-08-05T01:07:08.955Z,7.68
2022-08-05T01:07:31.947Z,8.63
2022-08-05T01:08:40.846Z,7.38
2022-08-05T01:08:41.464Z,10.05
2022-08-05T01:09:03.122Z,6.63
2022-08-05T01:09:20.182Z,10.30
2022-08-05T01:09:36.968Z,10.45
2022-08-05T01:09:55.469Z,6.68
2022-08-05T01:10:13.609Z,6.80
2022-08-05T01:10:52.127Z,6.80
2022-08-05T01:11:13.633Z,5.70
2022-08-05T01:11:33.436Z,8.70
2022-08-05T01:11:54.683Z,8.13
2022-08-05T01:12:18.743Z,6.78
2022-08-05T01:12:36.160Z,9.35
2022-08-05T01:13:05.161Z,8.75
2022-08-05T01:13:57.484Z,7.47
2022-08-05T01:14:15.258Z,10.63
2022-08-05T01:14:34.980Z,10.18
2022-08-05T01:14:56.115Z,9.93
2022-08-05T01:15:36.207Z,9.73
2022-08-05T01:16:05.895Z,12.57
2022-08-05T01:16:30.011Z,9.60
2022-08-05T01:16:49.051Z,7.53
2022-08-05T01:17:09.112Z,8.93
2022-08-05T01:17:29.244Z,8.48
2022-08-05T01:17:53.971Z,6.50
2022-08-05T01:18:13.586Z,5.55
2022-08-05T01:18:34.148Z,4.78
2022-08-05T01:18:53.734Z,7.18
2022-08-05T01:19:20.800Z,7.07
2022-08-05T01:20:00.948Z,8.75
2022-08-05T01:20:23.575Z,5.97
2022-08-05T01:20:50.611Z,11.30
2022-08-05T01:21:14.125Z,8.30
2022-08-05T01:21:58.190Z,5.35
2022-08-05T01:22:24.103Z,6.26
2022-08-05T01:22:47.272Z,6.78
2022-08-05T01:23:14.290Z,6.40
2022-08-05T01:23:38.340Z,7.18
2022-08-05T01:24:01.646Z,4.88
2022-08-05T01:24:38.589Z,9.00
2022-08-05T01:25:01.794Z,6.88
2022-08-05T01:25:40.042Z,6.50
2022-08-05T01:26:04.534Z,8.90
2022-08-05T01:26:34.937Z,7.54
2022-08-05T01:26:58.671Z,8.57
2022-08-05T01:27:25.589Z,7.68
2022-08-05T01:27:57.962Z,10.73
2022-08-05T01:28:20.461Z,12.60
2022-08-05T01:28:43.873Z,7.03
2022-08-05T01:29:05.337Z,6.28
2022-08-05T01:29:27.133Z,6.15
2022-08-05T01:29:49.076Z,10.57
2022-08-05T01:30:55.107Z,8.05
2022-08-05T01:31:15.153Z,6.05
2022-08-05T01:31:34.254Z,7.80
2022-08-05T01:32:12.335Z,6.72
2022-08-05T01:32:31.929Z,9.38
2022-08-05T01:32:50.850Z,13.02
2022-08-05T01:33:09.504Z,8.45
2022-08-05T01:33:35.522Z,6.15
2022-08-05T01:33:55.429Z,7.25
2022-08-05T01:34:14.496Z,7.20
2022-08-05T01:34:32.280Z,6.55
2022-08-05T01:34:57.164Z,6.20
2022-08-05T01:35:52.039Z,7.03
2022-08-05T01:35:54.895Z,6.57
2022-08-05T01:36:16.019Z,5.10
2022-08-05T01:36:36.237Z,7.22
2022-08-05T01:37:02.886Z,5.97
2022-08-05T01:37:25.178Z,5.82
2022-08-05T01:37:45.183Z,6.50
2022-08-05T01:38:04.312Z,6.55
2022-08-05T01:38:26.927Z,9.90
2022-08-05T01:38:48.602Z,8.55
2022-08-05T01:39:07.491Z,9.23
2022-08-05T01:39:25.511Z,7.65
2022-08-05T01:40:02.864Z,7.48
2022-08-05T01:40:21.484Z,7.20
2022-08-05T01:40:46.953Z,6.15
2022-08-05T01:41:05.876Z,5.18
2022-08-05T01:41:25.504Z,6.13
2022-08-05T01:41:44.372Z,9.05
2022-08-05T01:42:02.976Z,7.18
2022-08-05T01:42:20.597Z,4.15
2022-08-05T01:42:38.159Z,5.45
2022-08-05T01:43:00.812Z,5.55
2022-08-05T01:43:22.091Z,8.63
2022-08-05T01:43:42.259Z,9.13
2022-08-05T01:44:00.817Z,6.53
2022-08-05T01:44:18.197Z,5.53
2022-08-05T01:44:36.096Z,10.25
2022-08-05T01:44:56.026Z,8.95
2022-08-05T01:45:14.629Z,7.13
2022-08-05T01:45:35.022Z,8.45
2022-08-05T01:46:07.358Z,5.55
2022-08-05T01:46:42.019Z,3.50
2022-08-05T01:47:05.222Z,4.47
2022-08-05T01:47:24.251Z,6.14
2022-08-05T01:47:49.215Z,11.88
2022-08-05T01:48:11.507Z,9.05
2022-08-05T01:48:29.824Z,8.77
2022-08-05T01:48:50.255Z,10.73
2022-08-05T01:49:22.947Z,7.22
2022-08-05T01:50:00.190Z,5.95
2022-08-05T01:50:28.791Z,5.47
2022-08-05T01:50:51.089Z,5.70
2022-08-05T01:51:12.388Z,5.63
2022-08-05T01:51:31.229Z,8.45
2022-08-05T01:51:51.873Z,8.40
2022-08-05T01:52:17.619Z,10.14
2022-08-05T01:52:36.756Z,10.13
2022-08-05T01:52:54.320Z,10.52
2022-08-05T01:53:13.199Z,10.90
2022-08-05T01:53:57.199Z,8.38
2022-08-05T01:54:09.915Z,7.20
2022-08-05T01:54:29.026Z,6.25
2022-08-05T01:54:48.151Z,6.78
2022-08-05T01:55:09.581Z,7.30
2022-08-05T01:55:27.921Z,6.13
2022-08-05T01:55:45.237Z,6.70
2022-08-05T01:56:04.675Z,7.72
2022-08-05T01:58:09.316Z,6.25
2022-08-05T01:58:10.897Z,9.13
2022-08-05T01:58:10.983Z,5.22
2022-08-05T01:58:40.522Z,6.75
2022-08-05T01:58:59.686Z,3.83
2022-08-05T01:59:17.736Z,4.45
2022-08-05T01:59:35.176Z,4.63
2022-08-05T01:59:52.664Z,5.20
2022-08-05T02:00:11.668Z,4.80
2022-08-05T02:00:31.105Z,5.15
2022-08-05T02:00:50.343Z,5.53
2022-08-05T02:01:07.280Z,6.13
2022-08-05T02:01:26.322Z,6.40
2022-08-05T02:01:47.574Z,7.15
2022-08-05T02:02:06.415Z,7.88
2022-08-05T02:02:28.777Z,9.05
2022-08-05T02:02:51.377Z,10.50
2022-08-05T02:03:24.104Z,7.50
2022-08-05T02:03:47.923Z,9.45
2022-08-05T02:04:05.277Z,8.40
2022-08-05T02:04:22.392Z,7.07
2022-08-05T02:04:43.662Z,7.03
2022-08-05T02:05:04.817Z,7.32
2022-08-05T02:05:30.322Z,6.07
2022-08-05T02:05:53.513Z,7.82
2022-08-05T02:06:33.425Z,6.05
2022-08-05T02:06:53.994Z,9.32
2022-08-05T02:07:10.585Z,9.85
2022-08-05T02:07:38.552Z,7.78
2022-08-05T02:08:00.365Z,6.28
2022-08-05T02:08:29.671Z,9.27
2022-08-05T02:08:58.294Z,5.07
2022-08-05T02:09:16.459Z,7.97
2022-08-05T02:09:37.140Z,8.05
2022-08-05T02:09:54.372Z,5.28
2022-08-05T02:10:17.204Z,5.13
2022-08-05T02:10:37.583Z,7.00
2022-08-05T02:10:56.414Z,5.85
2022-08-05T02:11:15.229Z,4.40
2022-08-05T02:11:47.966Z,5.80
2022-08-05T02:12:12.830Z,10.45
2022-08-05T02:12:33.171Z,7.18
2022-08-05T02:12:53.525Z,5.82
2022-08-05T02:13:16.348Z,5.35
2022-08-05T02:13:53.505Z,5.72
2022-08-05T02:14:12.682Z,7.88
2022-08-05T02:14:32.369Z,6.43
2022-08-05T02:14:52.286Z,6.47
2022-08-05T02:15:12.419Z,7.57
2022-08-05T02:15:34.322Z,5.35
2022-08-05T02:15:54.309Z,7.00
2022-08-05T02:16:16.544Z,8.25
2022-08-05T02:16:44.068Z,7.26
2022-08-05T02:17:04.006Z,5.25
2022-08-05T02:18:27.978Z,7.03
2022-08-05T02:18:28.846Z,6.76
2022-08-05T02:18:42.249Z,6.47
2022-08-05T02:19:01.483Z,5.07
2022-08-05T02:19:25.403Z,4.47
2022-08-05T02:19:47.283Z,5.90
2022-08-05T02:20:07.317Z,5.78
2022-08-05T02:20:26.248Z,7.90
2022-08-05T02:20:46.941Z,8.45
2022-08-05T02:21:05.978Z,5.20
2022-08-05T02:21:38.057Z,5.75
2022-08-05T02:22:04.590Z,4.18
2022-08-05T02:22:27.310Z,4.28
2022-08-05T02:22:46.833Z,3.25
2022-08-05T02:23:08.701Z,6.78
2022-08-05T02:23:30.285Z,5.72
2022-08-05T02:23:53.098Z,5.30
2022-08-05T02:24:17.970Z,8.65
2022-08-05T02:24:38.841Z,5.05
2022-08-05T02:25:01.844Z,4.60
2022-08-05T02:25:22.226Z,6.60
2022-08-05T02:25:49.540Z,6.25
2022-08-05T02:26:08.559Z,6.10
2022-08-05T02:26:36.382Z,8.45
2022-08-05T02:26:55.640Z,7.10
2022-08-05T02:27:12.698Z,6.55
2022-08-05T02:27:59.319Z,6.22
2022-08-05T02:28:09.129Z,6.10
2022-08-05T02:28:28.882Z,5.50
2022-08-05T02:28:50.199Z,4.75
2022-08-05T02:29:08.097Z,5.30
2022-08-05T02:29:59.136Z,6.88
2022-08-05T02:30:17.924Z,5.10
2022-08-05T02:30:37.640Z,5.00
2022-08-05T02:31:14.634Z,7.55
2022-08-05T02:31:34.816Z,8.57
2022-08-05T02:31:54.010Z,6.28
2022-08-05T02:32:23.838Z,7.30
2022-08-05T02:32:48.936Z,10.52
2022-08-05T02:33:07.602Z,12.05
2022-08-05T02:33:38.636Z,5.75
2022-08-05T02:33:57.203Z,6.03
2022-08-05T02:34:16.423Z,5.80
2022-08-05T02:34:36.178Z,5.38
2022-08-05T02:34:54.538Z,7.82
2022-08-05T02:35:14.533Z,7.35
2022-08-05T02:35:37.419Z,7.05
2022-08-05T02:36:01.151Z,8.20
2022-08-05T02:36:19.259Z,6.85
2022-08-05T02:36:36.475Z,7.40
2022-08-05T02:36:55.876Z,8.25
2022-08-05T02:37:12.956Z,8.30
2022-08-05T02:37:32.186Z,8.93
2022-08-05T02:37:53.904Z,8.05
2022-08-05T02:38:11.104Z,9.52
2022-08-05T02:38:35.955Z,8.00
2022-08-05T02:38:53.989Z,6.40
2022-08-05T02:39:11.864Z,7.00
2022-08-05T02:39:35.070Z,6.90
2022-08-05T02:39:57.956Z,9.30
2022-08-05T02:40:16.589Z,14.40
2022-08-05T02:40:33.352Z,12.50
2022-08-05T02:40:52.157Z,9.60
2022-08-05T02:41:17.337Z,7.40
2022-08-05T02:41:43.370Z,4.53
2022-08-05T02:42:25.898Z,5.30
2022-08-05T02:42:44.762Z,7.80
2022-08-05T02:43:10.874Z,5.72
2022-08-05T02:43:28.197Z,7.65
2022-08-05T02:44:02.786Z,6.53
2022-08-05T02:44:26.736Z,4.03
2022-08-05T02:44:44.281Z,5.88
2022-08-05T02:45:01.779Z,7.20
2022-08-05T02:45:18.600Z,5.43
2022-08-05T02:45:52.081Z,5.38
2022-08-05T02:46:16.316Z,6.06
2022-08-05T02:46:33.442Z,7.38
2022-08-05T02:46:58.430Z,7.38
2022-08-05T02:47:17.317Z,6.45
2022-08-05T02:48:07.326Z,7.25
2022-08-05T02:48:13.452Z,4.93
2022-08-05T02:48:31.061Z,6.25
2022-08-05T02:48:48.623Z,6.60
2022-08-05T02:49:11.154Z,8.13
2022-08-05T02:49:36.762Z,8.13
2022-08-05T02:49:54.275Z,7.40
2022-08-05T02:50:13.604Z,4.78
2022-08-05T02:50:36.052Z,7.70
2022-08-05T02:50:53.448Z,9.25
2022-08-05T02:51:10.249Z,7.97
2022-08-05T02:51:28.558Z,6.07
2022-08-05T02:52:05.780Z,6.88
2022-08-05T02:52:29.463Z,8.02
2022-08-05T02:52:47.016Z,10.52
2022-08-05T02:53:03.804Z,7.60
2022-08-05T02:53:21.943Z,7.47
2022-08-05T02:53:40.483Z,7.60
2022-08-05T02:54:03.341Z,7.45
2022-08-05T02:54:35.982Z,8.85
2022-08-05T02:54:55.510Z,5.05
2022-08-05T02:55:13.845Z,4.55
2022-08-05T02:55:54.471Z,5.10
2022-08-05T02:56:16.006Z,7.32
2022-08-05T02:56:36.488Z,6.35
2022-08-05T02:57:00.240Z,7.97
2022-08-05T02:58:10.668Z,7.13
2022-08-05T02:58:10.986Z,5.90
2022-08-05T02:58:30.303Z,9.77
2022-08-05T02:58:51.535Z,7.80
2022-08-05T02:59:10.253Z,7.68
2022-08-05T02:59:29.666Z,6.93
2022-08-05T03:00:06.128Z,10.60
2022-08-05T03:00:24.790Z,11.55
2022-08-05T03:00:46.002Z,9.08
2022-08-05T03:01:03.253Z,6.95
2022-08-05T03:01:22.172Z,10.43
2022-08-05T03:01:41.395Z,8.10
2022-08-05T03:02:00.697Z,9.98
2022-08-05T03:02:19.133Z,12.30
2022-08-05T03:02:38.981Z,7.97
2022-08-05T03:02:58.281Z,8.27
2022-08-05T03:03:16.598Z,7.15
2022-08-05T03:04:02.984Z,8.27
2022-08-05T03:04:14.161Z,5.28
2022-08-05T03:04:32.654Z,8.13
2022-08-05T03:04:54.201Z,7.82
2022-08-05T03:05:12.309Z,6.57
2022-08-05T03:06:53.646Z,5.93
2022-08-05T03:06:53.942Z,6.28
2022-08-05T03:06:54.300Z,7.75
2022-08-05T03:07:21.455Z,7.15
2022-08-05T03:08:01.853Z,5.18
2022-08-05T03:08:29.556Z,7.28
2022-08-05T03:08:47.200Z,7.75
2022-08-05T03:09:11.453Z,8.80
2022-08-05T03:09:37.609Z,8.95
2022-08-05T03:10:01.092Z,7.43
2022-08-05T03:10:24.571Z,8.38
2022-08-05T03:10:42.589Z,11.57
2022-08-05T03:11:53.817Z,9.80
2022-08-05T03:12:49.498Z,7.45
2022-08-05T03:13:12.943Z,7.02
2022-08-05T03:13:51.457Z,6.60
2022-08-05T03:14:13.481Z,5.75
2022-08-05T03:14:31.818Z,7.10
2022-08-05T03:14:48.389Z,6.70
2022-08-05T03:15:07.497Z,7.18
2022-08-05T03:15:26.864Z,7.20
2022-08-05T03:15:45.609Z,8.15
2022-08-05T03:16:02.473Z,7.22
2022-08-05T03:16:20.694Z,8.20
2022-08-05T03:16:37.296Z,8.32
2022-08-05T03:16:55.047Z,8.38
2022-08-05T03:17:11.596Z,11.60
2022-08-05T03:17:29.036Z,10.65
2022-08-05T03:17:45.628Z,6.70
2022-08-05T03:18:03.175Z,8.98
2022-08-05T03:18:29.909Z,8.38
2022-08-05T03:18:47.128Z,6.28
2022-08-05T03:19:16.911Z,6.65
2022-08-05T03:19:45.585Z,7.72
2022-08-05T03:20:02.907Z,6.78
2022-08-05T03:20:19.499Z,7.35
2022-08-05T03:20:36.096Z,6.95
2022-08-05T03:20:54.984Z,7.15
2022-08-05T03:21:13.357Z,8.00
2022-08-05T03:21:33.192Z,7.90
2022-08-05T03:21:58.494Z,8.00
2022-08-05T03:22:19.026Z,9.30
2022-08-05T03:22:50.005Z,6.45
2022-08-05T03:23:08.060Z,5.90
2022-08-05T03:23:28.190Z,7.55
2022-08-05T03:23:46.125Z,7.95
2022-08-05T03:24:03.204Z,7.55
2022-08-05T03:24:23.680Z,9.13
2022-08-05T03:24:50.828Z,6.78
2022-08-05T03:25:33.937Z,10.45
2022-08-05T03:26:04.547Z,7.93
2022-08-05T03:26:30.928Z,11.90
2022-08-05T03:26:50.304Z,7.43
2022-08-05T03:27:07.358Z,6.57
2022-08-05T03:27:29.604Z,6.40
2022-08-05T03:27:59.836Z,9.70
2022-08-05T03:28:19.818Z,12.18
2022-08-05T03:28:36.688Z,15.73
2022-08-05T03:28:53.294Z,14.32
2022-08-05T03:29:12.408Z,10.05
2022-08-05T03:29:46.002Z,8.55
2022-08-05T03:30:13.132Z,9.15
2022-08-05T03:30:34.097Z,8.23
2022-08-05T03:30:52.267Z,6.43
2022-08-05T03:31:25.872Z,8.27
2022-08-05T03:31:57.106Z,5.97
2022-08-05T03:32:17.012Z,8.68
2022-08-05T03:32:34.684Z,8.15
2022-08-05T03:32:51.653Z,6.15
2022-08-05T03:33:08.897Z,7.53
2022-08-05T03:33:32.181Z,8.48
2022-08-05T03:34:04.917Z,8.95
2022-08-05T03:34:24.380Z,11.07
2022-08-05T03:34:41.213Z,8.98
2022-08-05T03:34:57.900Z,7.38
2022-08-05T03:35:14.970Z,8.52
2022-08-05T03:35:40.754Z,8.23
2022-08-05T03:35:59.116Z,9.73
2022-08-05T03:36:16.236Z,9.82
2022-08-05T03:36:48.061Z,8.68
2022-08-05T03:37:08.924Z,10.75
2022-08-05T03:37:27.018Z,12.32
2022-08-05T03:37:46.192Z,10.63
2022-08-05T03:38:03.633Z,8.55
2022-08-05T03:38:33.106Z,12.65
2022-08-05T03:38:53.281Z,11.77
2022-08-05T03:39:13.029Z,11.25
2022-08-05T03:39:57.775Z,9.88
2022-08-05T03:40:14.312Z,8.68
2022-08-05T03:40:32.712Z,9.70
2022-08-05T03:40:49.514Z,10.48
2022-08-05T03:41:08.631Z,10.35
2022-08-05T03:41:32.947Z,11.45
2022-08-05T03:41:52.624Z,9.70
2022-08-05T03:42:12.670Z,11.68
2022-08-05T03:42:32.962Z,9.68
2022-08-05T03:42:58.219Z,12.00
2022-08-05T03:43:59.083Z,10.15
2022-08-05T03:44:09.535Z,11.20
2022-08-05T03:44:29.019Z,14.02
2022-08-05T03:44:47.113Z,9.10
2022-08-05T03:45:21.831Z,8.10
2022-08-05T03:45:57.305Z,10.85
2022-08-05T03:46:15.139Z,10.25
2022-08-05T03:46:35.172Z,9.13
2022-08-05T03:46:52.164Z,8.20
2022-08-05T03:47:09.095Z,9.43
2022-08-05T03:47:35.521Z,10.10
2022-08-05T03:47:58.345Z,12.90
2022-08-05T03:48:15.090Z,10.43
2022-08-05T03:48:38.643Z,9.98
2022-08-05T03:48:56.345Z,8.82
2022-08-05T03:49:13.063Z,9.68
2022-08-05T03:49:52.099Z,9.90
2022-08-05T03:50:08.395Z,9.02
2022-08-05T03:50:30.184Z,7.90
2022-08-05T03:50:50.321Z,10.43
2022-08-05T03:52:36.559Z,8.40
2022-08-05T03:52:38.008Z,13.25
2022-08-05T03:52:49.353Z,13.13
2022-08-05T03:55:34.326Z,13.27
2022-08-05T03:55:51.092Z,11.65
2022-08-05T03:55:53.614Z,10.77
2022-08-05T03:56:05.164Z,10.13
2022-08-05T03:56:10.322Z,8.35
2022-08-05T03:56:35.179Z,8.10
2022-08-05T03:56:52.716Z,8.14
2022-08-05T03:57:16.661Z,11.30
2022-08-05T03:57:42.444Z,14.35
2022-08-05T03:58:00.744Z,15.55
2022-08-05T03:58:19.183Z,8.45
2022-08-05T03:58:36.719Z,10.15
2022-08-05T03:58:54.801Z,10.32
2022-08-05T03:59:14.697Z,10.00
2022-08-05T03:59:46.865Z,11.75
2022-08-05T04:00:07.268Z,8.48
2022-08-05T04:00:31.394Z,6.97
2022-08-05T04:00:51.528Z,7.40
2022-08-05T04:01:12.983Z,9.65
2022-08-05T04:01:32.315Z,9.05
2022-08-05T04:01:50.244Z,8.60
2022-08-05T04:02:10.020Z,8.63
2022-08-05T04:02:38.514Z,9.85
2022-08-05T04:02:59.263Z,12.20
2022-08-05T04:03:28.403Z,10.18
2022-08-05T04:04:09.086Z,8.98
2022-08-05T04:04:26.504Z,8.60
2022-08-05T04:04:44.799Z,10.63
2022-08-05T04:05:01.730Z,15.23
2022-08-05T04:05:18.990Z,15.48
2022-08-05T04:05:36.179Z,11.30
2022-08-05T04:05:56.660Z,9.27
2022-08-05T04:06:15.179Z,11.32
2022-08-05T04:06:33.340Z,11.02
2022-08-05T04:06:51.757Z,9.80
2022-08-05T04:07:09.012Z,9.63
2022-08-05T04:07:26.582Z,10.43
2022-08-05T04:07:57.324Z,7.93
2022-08-05T04:08:34.758Z,9.30
2022-08-05T04:08:53.586Z,13.27
2022-08-05T04:09:11.547Z,13.38
2022-08-05T04:09:29.025Z,10.10
2022-08-05T04:09:53.422Z,7.97
2022-08-05T04:10:10.592Z,11.35
2022-08-05T04:10:38.203Z,12.38
2022-08-05T04:10:55.599Z,13.15
2022-08-05T04:11:12.397Z,13.50
2022-08-05T04:11:50.400Z,8.38
2022-08-05T04:12:24.638Z,10.95
2022-08-05T04:12:58.969Z,9.87
2022-08-05T04:13:18.176Z,7.78
2022-08-05T04:13:50.268Z,9.18
2022-08-05T04:14:09.041Z,7.20
2022-08-05T04:14:36.768Z,6.75
2022-08-05T04:14:54.247Z,7.80
2022-08-05T04:15:15.774Z,8.25
2022-08-05T04:15:36.285Z,6.95
2022-08-05T04:16:04.489Z,7.57
2022-08-05T04:16:25.563Z,5.43
2022-08-05T04:16:49.227Z,7.20
2022-08-05T04:17:05.970Z,6.68
2022-08-05T04:17:22.879Z,5.13
2022-08-05T04:17:56.226Z,5.53
2022-08-05T04:18:20.652Z,7.00
2022-08-05T04:18:39.338Z,6.95
2022-08-05T04:18:57.688Z,7.43
2022-08-05T04:19:15.855Z,7.75
2022-08-05T04:19:41.864Z,13.38
2022-08-05T04:20:01.630Z,6.47
2022-08-05T04:20:20.009Z,6.50
2022-08-05T04:20:37.692Z,7.63
2022-08-05T04:20:58.358Z,9.07
2022-08-05T04:22:05.105Z,8.23
2022-08-05T04:22:09.009Z,9.43
2022-08-05T04:22:28.801Z,10.77
2022-08-05T04:22:45.563Z,11.10
2022-08-05T04:23:02.187Z,9.68
2022-08-05T04:23:21.424Z,7.90
2022-08-05T04:24:05.047Z,8.48
2022-08-05T04:24:23.531Z,7.93
2022-08-05T04:24:52.729Z,8.80
2022-08-05T04:25:10.824Z,7.68
2022-08-05T04:25:56.562Z,7.53
2022-08-05T04:26:05.252Z,10.07
2022-08-05T04:26:21.814Z,8.38
2022-08-05T04:26:38.659Z,8.65
2022-08-05T04:26:55.521Z,9.65
2022-08-05T04:27:15.345Z,8.60
2022-08-05T04:27:43.811Z,9.85
2022-08-05T04:28:11.291Z,10.10
2022-08-05T04:28:31.651Z,9.70
2022-08-05T04:28:51.148Z,8.75
2022-08-05T04:29:08.755Z,12.57
2022-08-05T04:29:27.177Z,9.05
2022-08-05T04:29:43.989Z,8.73
2022-08-05T04:30:03.727Z,9.23
2022-08-05T04:30:21.955Z,10.25
2022-08-05T04:30:39.498Z,10.95
2022-08-05T04:30:56.406Z,9.90
2022-08-05T04:31:13.073Z,9.52
2022-08-05T04:31:38.533Z,11.93
2022-08-05T04:31:56.997Z,9.65
2022-08-05T04:32:13.578Z,7.90
2022-08-05T04:32:33.429Z,10.52
2022-08-05T04:32:51.927Z,11.15
2022-08-05T04:33:08.486Z,9.68
2022-08-05T04:34:18.716Z,8.98
2022-08-05T04:34:31.283Z,10.42
2022-08-05T04:34:43.256Z,9.38
2022-08-05T04:35:00.128Z,13.93
2022-08-05T04:35:19.567Z,13.48
2022-08-05T04:36:15.865Z,8.30
2022-08-05T04:36:38.465Z,8.18
2022-08-05T04:36:52.018Z,6.32
2022-08-05T04:37:08.687Z,7.03
2022-08-05T04:38:02.438Z,7.55
2022-08-05T04:38:06.518Z,16.25
2022-08-05T04:38:23.552Z,6.20
2022-08-05T04:38:57.644Z,10.35
2022-08-05T04:39:14.755Z,10.98
2022-08-05T04:39:32.195Z,10.98
2022-08-05T04:39:52.658Z,7.82
2022-08-05T04:40:10.485Z,8.00
2022-08-05T04:40:28.120Z,6.20
2022-08-05T04:40:50.567Z,9.73
2022-08-05T04:41:09.351Z,7.18
2022-08-05T04:41:36.583Z,8.52
2022-08-05T04:41:55.310Z,9.93
2022-08-05T04:42:12.064Z,7.80
2022-08-05T04:42:30.800Z,9.73
2022-08-05T04:42:47.367Z,8.55
2022-08-05T04:43:05.939Z,7.22
2022-08-05T04:43:27.658Z,7.50
2022-08-05T04:43:48.148Z,8.73
2022-08-05T04:44:09.897Z,13.13
2022-08-05T04:44:30.266Z,10.60
2022-08-05T04:44:47.196Z,7.75
2022-08-05T04:45:04.025Z,8.60
2022-08-05T04:45:48.591Z,11.25
2022-08-05T04:46:04.518Z,8.77
2022-08-05T04:46:28.319Z,7.43
2022-08-05T04:46:46.967Z,7.75
2022-08-05T04:47:08.982Z,12.40
2022-08-05T04:47:27.629Z,9.82
2022-08-05T04:47:55.122Z,8.85
2022-08-05T04:48:18.588Z,6.85
2022-08-05T04:48:45.265Z,10.23
2022-08-05T04:49:02.698Z,9.25
2022-08-05T04:49:19.255Z,8.82
2022-08-05T04:50:02.620Z,11.73
2022-08-05T04:50:37.123Z,7.45
2022-08-05T04:51:02.887Z,10.75
2022-08-05T04:51:30.303Z,10.30
2022-08-05T04:51:48.248Z,9.45
2022-08-05T04:52:16.958Z,7.38
2022-08-05T04:52:35.226Z,7.93
2022-08-05T04:52:51.915Z,7.25
2022-08-05T04:53:09.515Z,10.60
2022-08-05T04:53:26.110Z,13.20
2022-08-05T04:53:42.668Z,10.88
2022-08-05T04:54:01.359Z,7.78
2022-08-05T04:54:19.725Z,7.85
2022-08-05T04:54:37.462Z,7.35
2022-08-05T04:54:54.073Z,8.75
2022-08-05T04:55:14.226Z,8.07
2022-08-05T04:56:32.957Z,7.72
2022-08-05T04:56:33.468Z,10.48
2022-08-05T04:56:45.996Z,8.82
2022-08-05T04:57:02.633Z,8.38
2022-08-05T04:57:19.582Z,8.35
2022-08-05T04:57:38.013Z,7.68
2022-08-05T04:57:54.589Z,7.03
2022-08-05T04:58:12.497Z,8.30
2022-08-05T04:58:29.094Z,9.75
2022-08-05T04:58:46.360Z,6.63
2022-08-05T04:59:22.460Z,7.50
2022-08-05T04:59:41.196Z,8.08
2022-08-05T04:59:58.327Z,9.63
2022-08-05T05:00:15.797Z,7.60
2022-08-05T05:00:36.368Z,8.80
2022-08-05T05:00:53.047Z,9.32
2022-08-05T05:01:09.812Z,8.70
2022-08-05T05:01:33.548Z,9.60
2022-08-05T05:02:07.947Z,14.50
2022-08-05T05:02:43.184Z,7.15
2022-08-05T05:03:03.895Z,8.10
2022-08-05T05:03:22.264Z,9.05
2022-08-05T05:03:41.754Z,10.30
2022-08-05T05:03:59.012Z,7.30
2022-08-05T05:04:16.208Z,6.68
2022-08-05T05:04:32.816Z,8.50